Time;durP1;ratioP1;P1;durP2;ratioP2;P2;SDS_P1;SDS_P2;PMS_P1;PMS_P2;Temp;Humidity;BMP_temperature;BMP_pressure;BME280_temperature;BME280_humidity;BME280_pressure;Samples;Min_cycle;Max_cycle;Signal;HPM_P1;HPM_P2
2023/07/30 00:00:06;;;;;;;3.65;2.53;;;;;;;;;;4963900;28;20031;-72
2023/07/30 00:02:32;;;;;;;4.10;2.65;;;;;;;;;;4944588;28;20023;-73
2023/07/30 00:04:58;;;;;;;3.92;2.85;;;;;;;;;;4960679;28;20098;-73
2023/07/30 00:07:24;;;;;;;4.57;3.10;;;;;;;;;;4960201;28;20514;-73
2023/07/30 00:09:50;;;;;;;5.85;2.92;;;;;;;;;;4962046;28;20427;-73
2023/07/30 00:12:16;;;;;;;5.18;3.33;;;;;;;;;;4946564;28;20054;-73
2023/07/30 00:14:42;;;;;;;4.32;2.90;;;;;;;;;;4960550;28;20111;-72
2023/07/30 00:17:08;;;;;;;6.70;3.03;;;;;;;;;;4960442;28;20046;-72
2023/07/30 00:19:35;;;;;;;4.03;3.10;;;;;;;;;;4960176;28;20059;-72
2023/07/30 00:22:01;;;;;;;4.72;2.55;;;;;;;;;;4963587;28;20030;-71
2023/07/30 00:24:27;;;;;;;10.43;3.20;;;;;;;;;;4962177;28;20031;-72
2023/07/30 00:26:53;;;;;;;3.88;2.30;;;;;;;;;;4960025;28;20576;-71
2023/07/30 00:29:19;;;;;;;3.42;3.13;;;;;;;;;;4959963;28;20110;-71
2023/07/30 00:31:45;;;;;;;6.40;3.28;;;;;;;;;;4943873;28;20016;-72
2023/07/30 00:34:11;;;;;;;5.13;2.95;;;;;;;;;;4963469;28;20471;-72
2023/07/30 00:36:37;;;;;;;6.07;2.70;;;;;;;;;;4960536;28;20023;-73
2023/07/30 00:39:03;;;;;;;5.40;3.00;;;;;;;;;;4959782;28;20027;-72
2023/07/30 00:41:29;;;;;;;3.75;2.78;;;;;;;;;;4959778;28;20159;-72
2023/07/30 00:43:55;;;;;;;4.03;2.78;;;;;;;;;;4944912;28;20507;-73
2023/07/30 00:46:21;;;;;;;4.85;3.45;;;;;;;;;;4962696;28;20026;-72
2023/07/30 00:48:47;;;;;;;4.90;3.17;;;;;;;;;;4942254;28;20082;-72
2023/07/30 00:51:14;;;;;;;8.68;2.33;;;;;;;;;;4947750;28;20034;-71
2023/07/30 00:53:40;;;;;;;3.35;3.03;;;;;;;;;;4960516;28;20368;-73
2023/07/30 00:56:06;;;;;;;4.55;3.10;;;;;;;;;;4962873;28;20058;-73
2023/07/30 00:58:33;;;;;;;7.15;2.63;;;;;;;;;;4962603;28;20031;-73
2023/07/30 01:00:59;;;;;;;4.93;2.92;;;;;;;;;;4965337;28;20030;-74
2023/07/30 01:03:26;;;;;;;5.22;2.88;;;;;;;;;;4959520;28;20027;-73
2023/07/30 01:05:52;;;;;;;7.60;2.80;;;;;;;;;;4961508;28;20629;-74
2023/07/30 01:08:18;;;;;;;3.83;2.90;;;;;;;;;;4968345;28;20143;-73
2023/07/30 01:10:44;;;;;;;6.05;3.17;;;;;;;;;;4967789;28;20845;-73
2023/07/30 01:13:10;;;;;;;4.05;2.97;;;;;;;;;;4959761;28;20570;-74
2023/07/30 01:15:38;;;;;;;3.67;3.08;;;;;;;;;;4959300;28;20078;-74
2023/07/30 01:18:04;;;;;;;5.13;2.72;;;;;;;;;;4957404;28;20031;-72
2023/07/30 01:20:31;;;;;;;6.93;2.97;;;;;;;;;;4946669;28;20035;-73
2023/07/30 01:22:58;;;;;;;6.15;2.75;;;;;;;;;;4965396;28;20030;-73
2023/07/30 01:25:25;;;;;;;8.55;3.10;;;;;;;;;;4959315;28;20510;-74
2023/07/30 01:27:53;;;;;;;5.32;3.20;;;;;;;;;;4968684;28;20023;-73
2023/07/30 01:30:22;;;;;;;5.72;2.75;;;;;;;;;;4962788;28;20022;-73
2023/07/30 01:32:53;;;;;;;6.32;3.15;;;;;;;;;;4963376;28;20394;-74
2023/07/30 01:35:22;;;;;;;2.83;2.53;;;;;;;;;;4964405;28;20034;-73
2023/07/30 01:37:49;;;;;;;5.80;3.20;;;;;;;;;;4968127;28;20023;-73
2023/07/30 01:40:16;;;;;;;5.45;2.72;;;;;;;;;;4970189;28;20039;-72
2023/07/30 01:42:42;;;;;;;3.55;2.83;;;;;;;;;;4962235;28;20023;-72
2023/07/30 01:45:08;;;;;;;5.78;2.92;;;;;;;;;;4963671;28;20031;-72
2023/07/30 01:47:34;;;;;;;6.05;3.25;;;;;;;;;;4963475;28;20035;-73
2023/07/30 01:50:00;;;;;;;4.35;3.03;;;;;;;;;;4964625;28;20081;-72
2023/07/30 01:52:26;;;;;;;4.38;2.72;;;;;;;;;;4960843;28;20081;-72
2023/07/30 01:54:52;;;;;;;4.70;3.17;;;;;;;;;;4960283;28;20027;-72
2023/07/30 01:57:18;;;;;;;7.05;3.05;;;;;;;;;;4958533;28;20027;-72
2023/07/30 01:59:44;;;;;;;10.38;3.08;;;;;;;;;;4967852;28;20372;-72
2023/07/30 02:02:10;;;;;;;5.22;3.50;;;;;;;;;;4962191;28;20390;-73
2023/07/30 02:04:36;;;;;;;4.35;3.15;;;;;;;;;;4962280;28;20035;-74
2023/07/30 02:07:02;;;;;;;5.10;2.80;;;;;;;;;;4969440;28;20026;-73
2023/07/30 02:09:28;;;;;;;5.65;3.05;;;;;;;;;;4959739;28;20042;-73
2023/07/30 02:11:54;;;;;;;10.80;2.90;;;;;;;;;;4960987;28;20392;-73
2023/07/30 02:14:20;;;;;;;7.03;3.03;;;;;;;;;;4952330;28;20046;-73
2023/07/30 02:16:46;;;;;;;4.72;3.30;;;;;;;;;;4966236;28;20023;-73
2023/07/30 02:19:12;;;;;;;8.48;3.60;;;;;;;;;;4961439;28;20027;-72
2023/07/30 02:21:42;;;;;;;6.95;3.38;;;;;;;;;;4952836;28;20031;-73
2023/07/30 02:24:10;;;;;;;7.38;3.08;;;;;;;;;;4970415;28;20026;-73
2023/07/30 02:26:36;;;;;;;5.32;3.22;;;;;;;;;;4972835;28;20022;-73
2023/07/30 02:29:02;;;;;;;5.32;3.38;;;;;;;;;;4976227;28;20038;-73
2023/07/30 02:31:28;;;;;;;5.97;3.40;;;;;;;;;;4973102;28;20038;-73
2023/07/30 02:33:54;;;;;;;6.95;3.63;;;;;;;;;;4975454;28;20558;-72
2023/07/30 02:36:20;;;;;;;5.82;3.22;;;;;;;;;;4977878;28;20099;-71
2023/07/30 02:38:46;;;;;;;5.18;3.10;;;;;;;;;;4965387;28;20051;-72
2023/07/30 02:41:12;;;;;;;7.45;3.30;;;;;;;;;;4958076;28;20032;-72
2023/07/30 02:43:38;;;;;;;7.38;2.90;;;;;;;;;;4966087;28;20061;-72
2023/07/30 02:46:06;;;;;;;6.13;3.20;;;;;;;;;;4944295;28;20107;-72
2023/07/30 02:48:32;;;;;;;4.32;2.75;;;;;;;;;;4962482;28;20030;-73
2023/07/30 02:50:58;;;;;;;8.00;2.88;;;;;;;;;;4961992;28;20114;-72
2023/07/30 02:53:24;;;;;;;7.28;3.20;;;;;;;;;;4952308;28;20472;-73
2023/07/30 02:55:50;;;;;;;9.70;2.75;;;;;;;;;;4963778;28;20359;-72
2023/07/30 02:58:16;;;;;;;3.47;3.17;;;;;;;;;;4966918;28;20084;-72
2023/07/30 03:00:42;;;;;;;15.63;3.78;;;;;;;;;;4961923;28;20442;-72
2023/07/30 03:03:08;;;;;;;7.68;3.20;;;;;;;;;;4962140;28;20032;-72
2023/07/30 03:05:34;;;;;;;8.15;2.97;;;;;;;;;;4947223;28;20035;-72
2023/07/30 03:08:00;;;;;;;6.55;2.90;;;;;;;;;;4964680;28;20035;-72
2023/07/30 03:10:27;;;;;;;5.88;2.97;;;;;;;;;;4965142;28;20034;-72
2023/07/30 03:12:53;;;;;;;6.25;3.35;;;;;;;;;;4967045;28;20019;-74
2023/07/30 03:15:19;;;;;;;6.20;3.45;;;;;;;;;;4976487;28;20030;-74
2023/07/30 03:17:45;;;;;;;6.18;3.50;;;;;;;;;;4968777;28;20027;-73
2023/07/30 03:20:11;;;;;;;6.30;3.22;;;;;;;;;;4970423;28;20070;-73
2023/07/30 03:22:37;;;;;;;7.72;3.17;;;;;;;;;;4968243;28;20544;-74
2023/07/30 03:25:03;;;;;;;7.43;3.42;;;;;;;;;;4967059;28;20107;-73
2023/07/30 03:27:29;;;;;;;5.72;3.20;;;;;;;;;;4966439;28;20094;-71
2023/07/30 03:29:55;;;;;;;5.97;3.47;;;;;;;;;;4950147;28;20019;-72
2023/07/30 03:32:21;;;;;;;3.78;2.65;;;;;;;;;;4968021;28;20038;-71
2023/07/30 03:34:47;;;;;;;6.15;2.80;;;;;;;;;;4961347;28;20033;-71
2023/07/30 03:37:13;;;;;;;8.45;3.60;;;;;;;;;;4961032;28;20027;-71
2023/07/30 03:39:39;;;;;;;5.25;3.25;;;;;;;;;;4961197;28;20072;-71
2023/07/30 03:42:05;;;;;;;7.28;3.05;;;;;;;;;;4947495;28;20560;-74
2023/07/30 03:44:31;;;;;;;7.80;3.80;;;;;;;;;;4962657;28;20105;-73
2023/07/30 03:46:57;;;;;;;12.77;3.38;;;;;;;;;;4966061;28;20348;-72
2023/07/30 03:49:23;;;;;;;5.32;3.10;;;;;;;;;;4963415;28;20459;-74
2023/07/30 03:51:49;;;;;;;6.57;2.97;;;;;;;;;;4970797;28;20439;-72
2023/07/30 03:54:15;;;;;;;7.50;3.03;;;;;;;;;;4972258;28;20019;-72
2023/07/30 03:56:41;;;;;;;4.05;2.42;;;;;;;;;;4960835;28;20042;-72
2023/07/30 03:59:07;;;;;;;6.45;2.50;;;;;;;;;;4960322;28;20033;-71
2023/07/30 04:01:33;;;;;;;8.80;3.08;;;;;;;;;;4960758;28;20101;-72
2023/07/30 04:03:59;;;;;;;5.82;2.88;;;;;;;;;;4963425;28;20459;-72
2023/07/30 04:06:25;;;;;;;8.52;3.13;;;;;;;;;;4963841;28;20101;-72
2023/07/30 04:08:52;;;;;;;4.50;3.10;;;;;;;;;;4969928;28;20070;-71
2023/07/30 04:11:17;;;;;;;6.72;3.00;;;;;;;;;;4960601;28;20028;-71
2023/07/30 04:13:43;;;;;;;7.15;3.00;;;;;;;;;;4961219;28;20028;-71
2023/07/30 04:16:09;;;;;;;6.25;2.75;;;;;;;;;;4963891;28;20399;-71
2023/07/30 04:18:35;;;;;;;3.95;2.78;;;;;;;;;;4971517;28;20065;-72
2023/07/30 04:21:01;;;;;;;5.18;2.88;;;;;;;;;;4948829;28;20114;-71
2023/07/30 04:23:27;;;;;;;8.57;3.00;;;;;;;;;;4960287;28;20031;-71
2023/07/30 04:25:53;;;;;;;9.00;2.78;;;;;;;;;;4962513;28;20023;-72
2023/07/30 04:28:19;;;;;;;3.35;2.50;;;;;;;;;;4946515;28;20026;-71
2023/07/30 04:30:48;;;;;;;4.20;2.78;;;;;;;;;;4942928;28;20023;-72
2023/07/30 04:33:14;;;;;;;4.60;2.50;;;;;;;;;;4960407;28;20046;-71
2023/07/30 04:35:40;;;;;;;3.85;2.63;;;;;;;;;;4942975;28;20016;-71
2023/07/30 04:38:06;;;;;;;5.85;2.28;;;;;;;;;;4963395;28;20026;-71
2023/07/30 04:40:32;;;;;;;5.05;2.72;;;;;;;;;;4946507;28;20122;-72
2023/07/30 04:42:58;;;;;;;4.80;2.35;;;;;;;;;;4959968;28;20035;-71
2023/07/30 04:45:24;;;;;;;7.93;2.67;;;;;;;;;;4959793;28;20031;-71
2023/07/30 04:47:50;;;;;;;8.13;3.20;;;;;;;;;;4964122;28;20025;-70
2023/07/30 04:50:16;;;;;;;8.20;3.17;;;;;;;;;;4976408;28;20064;-70
2023/07/30 04:52:42;;;;;;;6.57;3.22;;;;;;;;;;4960232;28;20440;-71
2023/07/30 04:55:08;;;;;;;4.95;2.75;;;;;;;;;;4966495;28;20019;-72
2023/07/30 04:57:34;;;;;;;6.53;2.60;;;;;;;;;;4963695;28;20028;-72
2023/07/30 05:00:00;;;;;;;9.30;2.80;;;;;;;;;;4962875;28;20442;-71
2023/07/30 05:02:26;;;;;;;5.65;2.17;;;;;;;;;;4969935;28;20082;-72
2023/07/30 05:04:52;;;;;;;5.78;1.90;;;;;;;;;;4962577;28;20019;-72
2023/07/30 05:07:18;;;;;;;11.05;3.45;;;;;;;;;;4959467;28;20447;-73
2023/07/30 05:09:44;;;;;;;6.25;2.20;;;;;;;;;;4961893;28;20019;-72
2023/07/30 05:12:11;;;;;;;5.63;1.75;;;;;;;;;;4962874;28;20458;-71
2023/07/30 05:14:36;;;;;;;4.05;2.05;;;;;;;;;;4960168;28;20485;-71
2023/07/30 05:17:03;;;;;;;5.78;1.83;;;;;;;;;;4959214;28;20031;-71
2023/07/30 05:19:29;;;;;;;6.25;2.13;;;;;;;;;;4959275;28;20031;-72
2023/07/30 05:21:55;;;;;;;4.88;2.15;;;;;;;;;;4961665;28;20106;-72
2023/07/30 05:24:21;;;;;;;5.13;1.80;;;;;;;;;;4962295;28;20098;-72
2023/07/30 05:26:47;;;;;;;8.93;2.20;;;;;;;;;;4959060;28;20451;-72
2023/07/30 05:29:13;;;;;;;6.07;1.50;;;;;;;;;;4959165;28;20098;-72
2023/07/30 05:31:39;;;;;;;2.20;1.40;;;;;;;;;;4959331;28;20041;-72
2023/07/30 05:34:05;;;;;;;4.43;1.55;;;;;;;;;;4962388;28;20034;-72
2023/07/30 05:36:31;;;;;;;4.03;1.80;;;;;;;;;;4962323;28;20027;-71
2023/07/30 05:38:57;;;;;;;3.15;1.45;;;;;;;;;;4964995;28;20099;-72
2023/07/30 05:41:23;;;;;;;4.05;1.55;;;;;;;;;;4988270;23;20050;-73
2023/07/30 05:43:49;;;;;;;3.80;1.95;;;;;;;;;;4991354;28;20022;-73
2023/07/30 05:46:15;;;;;;;2.38;1.60;;;;;;;;;;4974133;28;20033;-72
2023/07/30 05:48:41;;;;;;;4.57;1.52;;;;;;;;;;4991849;28;20019;-72
2023/07/30 05:51:07;;;;;;;6.32;1.80;;;;;;;;;;4991436;28;20109;-72
2023/07/30 05:53:33;;;;;;;9.25;2.63;;;;;;;;;;4991637;28;20021;-72
2023/07/30 05:55:59;;;;;;;6.03;2.33;;;;;;;;;;4992076;28;20673;-72
2023/07/30 05:58:25;;;;;;;4.97;2.50;;;;;;;;;;4992179;28;20057;-74
2023/07/30 06:04:30;;;;;;;4.55;2.70;;;;;;;;;;4967075;28;20101;-73
2023/07/30 06:06:56;;;;;;;4.90;2.78;;;;;;;;;;4958667;28;20110;-72
2023/07/30 06:09:22;;;;;;;4.30;2.67;;;;;;;;;;4961466;28;20166;-74
2023/07/30 06:11:48;;;;;;;4.47;2.65;;;;;;;;;;4949423;28;20106;-73
2023/07/30 06:14:14;;;;;;;6.60;3.08;;;;;;;;;;4964504;28;20529;-73
2023/07/30 06:16:40;;;;;;;6.78;3.15;;;;;;;;;;4972295;28;20090;-72
2023/07/30 06:19:06;;;;;;;5.22;3.15;;;;;;;;;;4971691;28;20105;-73
2023/07/30 06:21:32;;;;;;;4.82;2.85;;;;;;;;;;4951760;28;20471;-73
2023/07/30 06:23:58;;;;;;;5.07;2.60;;;;;;;;;;4969297;28;20113;-73
2023/07/30 06:26:24;;;;;;;4.40;3.10;;;;;;;;;;4968895;28;20029;-72
2023/07/30 06:28:50;;;;;;;5.00;3.13;;;;;;;;;;4965125;28;20375;-73
2023/07/30 06:31:16;;;;;;;4.32;2.63;;;;;;;;;;4943368;29;20031;-73
2023/07/30 06:33:42;;;;;;;4.57;3.28;;;;;;;;;;4969871;28;20019;-74
2023/07/30 06:36:08;;;;;;;2.65;2.38;;;;;;;;;;4961916;28;20510;-73
2023/07/30 06:38:34;;;;;;;4.78;3.10;;;;;;;;;;4962632;28;20070;-73
2023/07/30 06:41:00;;;;;;;4.03;2.95;;;;;;;;;;4971239;28;20062;-73
2023/07/30 06:43:26;;;;;;;5.80;2.42;;;;;;;;;;4958060;28;20037;-72
2023/07/30 06:45:53;;;;;;;5.60;3.03;;;;;;;;;;4970774;28;20020;-73
2023/07/30 06:48:19;;;;;;;3.47;2.70;;;;;;;;;;4955838;28;20471;-73
2023/07/30 06:50:45;;;;;;;4.70;2.58;;;;;;;;;;4961726;28;20525;-73
2023/07/30 06:53:11;;;;;;;5.65;2.70;;;;;;;;;;4965428;28;20026;-74
2023/07/30 06:55:37;;;;;;;2.72;2.42;;;;;;;;;;4961628;28;20043;-74
2023/07/30 06:58:03;;;;;;;4.65;2.53;;;;;;;;;;4952079;28;20411;-70
2023/07/30 07:00:29;;;;;;;2.20;2.00;;;;;;;;;;4951868;28;20150;-70
2023/07/30 07:02:55;;;;;;;3.92;2.60;;;;;;;;;;4951908;28;20052;-71
2023/07/30 07:05:22;;;;;;;3.95;2.10;;;;;;;;;;4951690;28;20059;-71
2023/07/30 07:07:48;;;;;;;7.20;2.30;;;;;;;;;;4976234;28;20031;-70
2023/07/30 07:10:14;;;;;;;2.67;1.98;;;;;;;;;;4966154;28;20030;-69
2023/07/30 07:12:41;;;;;;;5.63;2.53;;;;;;;;;;4959932;28;20085;-69
2023/07/30 07:15:07;;;;;;;4.90;2.10;;;;;;;;;;4970390;28;20066;-70
2023/07/30 07:17:33;;;;;;;2.88;1.70;;;;;;;;;;4965701;28;20026;-71
2023/07/30 07:19:59;;;;;;;3.60;2.13;;;;;;;;;;4964268;28;20035;-71
2023/07/30 07:22:25;;;;;;;2.88;1.98;;;;;;;;;;4942271;28;20122;-71
2023/07/30 07:24:54;;;;;;;2.63;1.67;;;;;;;;;;4960077;28;20030;-72
2023/07/30 07:27:23;;;;;;;3.03;1.40;;;;;;;;;;4959749;28;20034;-71
2023/07/30 07:29:49;;;;;;;4.07;1.83;;;;;;;;;;4963037;28;20082;-71
2023/07/30 07:32:15;;;;;;;3.83;1.63;;;;;;;;;;4969790;28;20035;-69
2023/07/30 07:34:41;;;;;;;2.72;1.67;;;;;;;;;;4967180;28;20079;-71
2023/07/30 07:37:07;;;;;;;3.38;1.50;;;;;;;;;;4974584;28;20098;-71
2023/07/30 07:39:33;;;;;;;3.65;1.75;;;;;;;;;;4958040;28;20043;-69
2023/07/30 07:41:59;;;;;;;1.98;1.60;;;;;;;;;;4970430;28;20049;-69
2023/07/30 07:44:25;;;;;;;4.82;1.75;;;;;;;;;;4969728;28;20037;-69
2023/07/30 07:46:51;;;;;;;3.03;1.52;;;;;;;;;;4968739;28;20089;-71
2023/07/30 07:49:18;;;;;;;4.10;1.60;;;;;;;;;;4973775;28;20027;-71
2023/07/30 07:51:44;;;;;;;3.40;1.60;;;;;;;;;;4961154;28;20407;-71
2023/07/30 07:54:10;;;;;;;5.45;1.60;;;;;;;;;;4952973;28;20099;-70
2023/07/30 07:56:36;;;;;;;4.75;1.77;;;;;;;;;;4942748;28;20069;-69
2023/07/30 07:59:02;;;;;;;3.80;1.67;;;;;;;;;;4952359;28;20047;-70
2023/07/30 08:01:28;;;;;;;1.40;1.30;;;;;;;;;;4954304;28;20027;-70
2023/07/30 08:03:55;;;;;;;5.03;2.10;;;;;;;;;;4968650;28;20035;-70
2023/07/30 08:06:21;;;;;;;3.30;1.65;;;;;;;;;;4954973;28;20046;-69
2023/07/30 08:08:47;;;;;;;2.80;1.58;;;;;;;;;;4955095;28;20028;-70
2023/07/30 08:11:13;;;;;;;1.98;1.27;;;;;;;;;;4962952;28;20074;-70
2023/07/30 08:13:39;;;;;;;3.97;1.52;;;;;;;;;;4954905;28;20105;-70
2023/07/30 08:16:05;;;;;;;3.30;1.33;;;;;;;;;;4954720;28;20024;-70
2023/07/30 08:18:31;;;;;;;4.75;1.75;;;;;;;;;;4954605;28;20078;-70
2023/07/30 08:20:57;;;;;;;3.58;1.42;;;;;;;;;;4937493;29;20046;-70
2023/07/30 08:23:23;;;;;;;2.78;1.40;;;;;;;;;;4937300;28;20031;-70
2023/07/30 08:25:49;;;;;;;2.88;1.60;;;;;;;;;;4962494;28;20039;-70
2023/07/30 08:28:15;;;;;;;1.13;1.02;;;29.60;46.70;;;;;;4961826;28;20530;-69
2023/07/30 08:30:41;;;;;;;2.05;1.65;;;29.60;46.70;;;;;;4962842;28;20031;-70
2023/07/30 08:33:06;;;;;;;3.40;1.27;;;29.10;48.30;;;;;;4954598;28;20102;-70
2023/07/30 08:35:32;;;;;;;3.55;1.60;;;30.00;46.10;;;;;;4956137;28;20027;-70
2023/07/30 08:37:58;;;;;;;1.42;1.33;;;30.40;45.50;;;;;;4960536;28;20512;-71
2023/07/30 08:40:24;;;;;;;3.40;1.40;;;30.60;44.60;;;;;;4954170;28;20135;-70
2023/07/30 08:42:53;;;;;;;3.17;1.30;;;30.00;45.20;;;;;;4954324;28;20035;-72
2023/07/30 08:45:19;;;;;;;2.53;1.50;;;29.90;46.10;;;;;;4954418;28;20042;-71
2023/07/30 08:47:46;;;;;;;2.33;1.83;;;29.70;46.40;;;;;;4953830;28;20027;-70
2023/07/30 08:50:12;;;;;;;1.50;1.27;;;29.40;47.50;;;;;;4960908;28;20026;-71
2023/07/30 08:52:39;;;;;;;2.92;1.70;;;29.00;48.10;;;;;;4954751;28;20402;-70
2023/07/30 08:55:05;;;;;;;2.13;1.70;;;28.50;48.50;;;;;;4953994;28;20070;-71
2023/07/30 08:57:32;;;;;;;1.63;1.33;;;28.50;49.30;;;;;;4953722;28;20441;-70
2023/07/30 09:00:08;;;;;;;2.80;1.55;;;28.50;48.90;;;;;;4954131;28;20027;-70
2023/07/30 09:02:43;;;;;;;2.00;1.60;;;28.80;48.70;;;;;;4936221;28;20038;-70
2023/07/30 09:05:09;;;;;;;3.58;1.60;;;;;;;;;;4936211;29;20070;-70
2023/07/30 09:07:35;;;;;;;1.92;1.50;;;;;;;;;;4953032;28;20027;-70
2023/07/30 09:10:01;;;;;;;2.35;1.42;;;;;;;;;;4953263;28;20031;-71
2023/07/30 09:12:33;;;;;;;4.22;1.33;;;;;;;;;;4953451;28;20368;-70
2023/07/30 09:15:00;;;;;;;12.73;1.60;;;;;;;;;;4936422;29;20082;-71
2023/07/30 09:17:26;;;;;;;1.60;1.50;;;;;;;;;;4953270;28;20419;-69
2023/07/30 09:19:53;;;;;;;1.88;1.30;;;33.40;38.60;;;;;;4953402;28;20093;-71
2023/07/30 09:22:26;;;;;;;1.73;1.63;;;32.90;39.90;;;;;;4961080;28;20046;-70
2023/07/30 09:24:53;;;;;;;2.50;1.77;;;33.50;39.00;;;;;;4957650;28;20068;-70
2023/07/30 09:27:25;;;;;;;2.15;1.23;;;33.70;39.10;;;;;;4956693;28;20106;-71
2023/07/30 09:29:52;;;;;;;1.40;1.30;;;33.20;39.80;;;;;;4958956;28;20030;-70
2023/07/30 09:32:18;;;;;;;3.03;1.15;;;32.70;40.10;;;;;;4961457;28;20027;-71
2023/07/30 09:34:45;;;;;;;2.90;1.88;;;31.90;41.30;;;;;;4953103;28;20082;-71
2023/07/30 09:37:11;;;;;;;1.95;1.13;;;32.30;41.70;;;;;;4953162;28;20034;-71
2023/07/30 09:39:37;;;;;;;1.15;1.05;;;32.60;41.40;;;;;;4955343;28;20031;-69
2023/07/30 09:42:03;;;;;;;2.72;1.35;;;32.40;39.80;;;;;;4964586;28;20034;-70
2023/07/30 09:44:33;;;;;;;2.42;1.45;;;;;;;;;;4955039;28;20475;-70
2023/07/30 09:47:04;;;;;;;2.97;1.65;;;;;;;;;;4952812;28;20508;-70
2023/07/30 09:49:31;;;;;;;1.90;1.33;;;;;;;;;;4953052;28;20134;-71
2023/07/30 09:51:58;;;;;;;2.15;1.48;;;;;;;;;;4935831;28;20038;-70
2023/07/30 09:54:24;;;;;;;2.80;2.10;;;;;;;;;;4953013;28;20027;-70
2023/07/30 09:56:50;;;;;;;1.95;1.85;;;;;;;;;;4946937;28;20046;-70
2023/07/30 09:59:16;;;;;;;1.73;1.63;;;;;;;;;;4956737;28;20471;-70
2023/07/30 10:01:49;;;;;;;1.80;1.70;;;;;;;;;;4960609;28;20061;-70
2023/07/30 10:04:15;;;;;;;1.85;1.63;;;;;;;;;;4943428;28;20039;-70
2023/07/30 10:06:43;;;;;;;1.92;1.73;;;;;;;;;;4955073;28;20038;-70
2023/07/30 10:09:11;;;;;;;2.25;1.30;;;;;;;;;;4957379;28;20109;-69
2023/07/30 10:11:37;;;;;;;1.60;1.50;;;;;;;;;;4958017;28;20031;-70
2023/07/30 10:14:04;;;;;;;3.20;1.60;;;;;;;;;;4940969;28;20053;-70
2023/07/30 10:16:30;;;;;;;3.25;1.67;;;;;;;;;;4954561;28;20487;-70
2023/07/30 10:18:57;;;;;;;1.30;1.20;;;;;;;;;;4952383;28;20595;-70
2023/07/30 10:21:24;;;;;;;1.85;1.67;;;;;;;;;;4960650;28;20082;-69
2023/07/30 10:23:58;;;;;;;1.73;1.63;;;;;;;;;;4956776;28;20027;-69
2023/07/30 10:26:28;;;;;;;2.08;1.88;;;;;;;;;;4938136;28;20483;-70
2023/07/30 10:29:13;;;;;;;3.30;1.50;;;;;;;;;;4965079;28;20022;-70
2023/07/30 10:31:40;;;;;;;3.40;1.88;;;;;;;;;;4960915;28;20042;-70
2023/07/30 10:34:10;;;;;;;2.97;1.90;;;;;;;;;;4958856;28;20055;-70
2023/07/30 10:36:44;;;;;;;1.67;1.58;;;;;;;;;;4956089;28;20097;-70
2023/07/30 10:39:13;;;;;;;5.07;1.70;;;;;;;;;;4971952;28;20029;-70
2023/07/30 10:41:39;;;;;;;2.65;2.40;;;;;;;;;;4953064;28;20039;-70
2023/07/30 10:44:05;;;;;;;2.65;1.92;;;;;;;;;;4952527;28;20036;-70
2023/07/30 10:46:32;;;;;;;5.55;2.22;;;;;;;;;;4960073;28;20058;-70
2023/07/30 10:48:58;;;;;;;2.72;1.77;;;;;;;;;;4952188;28;20020;-70
2023/07/30 10:51:24;;;;;;;1.88;1.58;;;;;;;;;;4935032;28;20042;-70
2023/07/30 10:53:51;;;;;;;1.80;1.70;;;;;;;;;;4959650;28;20027;-70
2023/07/30 10:56:18;;;;;;;1.63;1.48;;;;;;;;;;4952312;28;20024;-70
2023/07/30 10:58:45;;;;;;;2.13;1.70;;;;;;;;;;4959892;28;20019;-70
2023/07/30 11:01:11;;;;;;;1.35;1.25;;;;;;;;;;4952135;28;20114;-70
2023/07/30 11:03:38;;;;;;;2.55;1.45;;;;;;;;;;4959882;28;20035;-70
2023/07/30 11:06:04;;;;;;;4.40;1.50;;;;;;;;;;4952019;28;20062;-69
2023/07/30 11:08:33;;;;;;;2.13;1.63;;;;;;;;;;4962357;28;20035;-68
2023/07/30 11:11:00;;;;;;;1.70;1.60;;;;;;;;;;4972985;28;20203;-68
2023/07/30 11:13:26;;;;;;;4.70;1.58;;;;;;;;;;4969669;28;20034;-69
2023/07/30 11:15:52;;;;;;;3.75;1.60;;;;;;;;;;4967671;28;20015;-69
2023/07/30 11:18:18;;;;;;;1.73;1.63;;;;;;;;;;4974218;28;20487;-69
2023/07/30 11:20:45;;;;;;;2.45;1.38;;;;;;;;;;4965558;28;20458;-70
2023/07/30 11:23:18;;;;;;;4.35;1.75;;;;;;;;;;4949946;28;20031;-70
2023/07/30 11:25:53;;;;;;;1.73;1.25;;;;;;;;;;4966277;28;20121;-70
2023/07/30 11:28:29;;;;;;;6.55;1.17;;;;;;;;;;4957931;28;20035;-70
2023/07/30 11:30:56;;;;;;;5.32;0.95;;;;;;;;;;4967561;28;20026;-70
2023/07/30 11:33:22;;;;;;;1.50;0.95;;;;;;;;;;4966506;28;20023;-67
2023/07/30 11:35:48;;;;;;;1.20;0.70;;;;;;;;;;4963035;28;20035;-70
2023/07/30 11:38:14;;;;;;;1.05;0.70;;;;;;;;;;4955246;28;20027;-70
2023/07/30 11:40:41;;;;;;;4.80;1.27;;;;;;;;;;4966373;28;20041;-69
2023/07/30 11:43:07;;;;;;;1.77;1.00;;;;;;;;;;4972048;28;20114;-69
2023/07/30 11:45:33;;;;;;;3.20;1.13;;;;;;;;;;4965414;28;20035;-69
2023/07/30 11:48:09;;;;;;;2.90;1.08;;;;;;;;;;4973704;28;20034;-70
2023/07/30 11:50:51;;;;;;;1.38;1.27;;;;;;;;;;4969784;28;20027;-70
2023/07/30 11:53:18;;;;;;;1.55;0.63;;;;;;;;;;4966098;28;20054;-69
2023/07/30 11:55:45;;;;;;;1.45;0.85;;;27.50;43.80;;;;;;4971734;28;20023;-69
2023/07/30 11:58:12;;;;;;;0.80;0.80;;;27.50;44.40;;;;;;4962717;28;20028;-69
2023/07/30 12:00:43;;;;;;;3.90;1.02;;;27.60;43.70;;;;;;4962486;28;20034;-68
2023/07/30 12:03:12;;;;;;;3.17;0.90;;;27.70;46.70;;;;;;4960274;28;20113;-68
2023/07/30 12:05:38;;;;;;;1.70;1.20;;;27.80;43.80;;;;;;4970312;28;20113;-68
2023/07/30 12:08:07;;;;;;;0.88;0.82;;;27.70;45.40;;;;;;4957932;28;20123;-69
2023/07/30 12:10:46;;;;;;;0.80;0.68;;;27.80;44.80;;;;;;4954822;28;20046;-68
2023/07/30 12:13:20;;;;;;;1.17;1.00;;;27.80;43.20;;;;;;4954611;28;20051;-68
2023/07/30 12:15:53;;;;;;;0.90;0.70;;;27.80;45.40;;;;;;4962338;28;20022;-68
2023/07/30 12:18:20;;;;;;;3.10;1.10;;;27.80;45.50;;;;;;4969765;28;20027;-68
2023/07/30 12:20:50;;;;;;;2.92;1.27;;;27.80;44.20;;;;;;4969678;28;20094;-69
2023/07/30 12:23:16;;;;;;;3.17;1.03;;;27.70;44.70;;;;;;4971746;28;20486;-69
2023/07/30 12:25:42;;;;;;;2.10;1.05;;;27.70;45.10;;;;;;4973690;28;20278;-68
2023/07/30 12:28:07;;;;;;;3.53;1.10;;;27.70;43.30;;;;;;4959627;28;20024;-70
2023/07/30 12:30:33;;;;;;;4.70;1.30;;;27.70;44.80;;;;;;4962390;28;20028;-69
2023/07/30 12:32:59;;;;;;;2.80;1.00;;;27.70;45.50;;;;;;4954450;28;20031;-70
2023/07/30 12:35:24;;;;;;;5.22;1.30;;;27.70;43.10;;;;;;4959144;28;20162;-69
2023/07/30 12:37:50;;;;;;;3.65;1.40;;;27.70;46.70;;;;;;4966908;28;20117;-71
2023/07/30 12:40:17;;;;;;;46.72;40.63;;;27.80;46.30;;;;;;4966293;28;20029;-68
2023/07/30 12:42:42;;;;;;;124.10;104.93;;;27.70;43.00;;;;;;4966387;28;20054;-70
2023/07/30 12:45:08;;;;;;;59.85;47.70;;;27.80;44.50;;;;;;4966199;28;20484;-68
2023/07/30 12:47:35;;;;;;;15.70;12.23;;;28.00;43.90;;;;;;4960406;28;20569;-70
2023/07/30 12:50:01;;;;;;;19.65;14.15;;;28.00;43.00;;;;;;4963308;28;20031;-69
2023/07/30 12:52:27;;;;;;;55.08;39.90;;;27.90;43.10;;;;;;4969129;28;20027;-69
2023/07/30 12:54:53;;;;;;;69.57;50.92;;;28.00;43.30;;;;;;4962943;28;20099;-70
2023/07/30 12:57:18;;;;;;;9.27;7.05;;;28.30;42.20;;;;;;4954188;28;20046;-70
2023/07/30 12:59:44;;;;;;;53.80;39.92;;;28.50;42.30;;;;;;4959966;28;20631;-70
2023/07/30 13:02:09;;;;;;;46.92;42.08;;;28.70;43.40;;;;;;4954254;28;20063;-71
2023/07/30 13:04:36;;;;;;;27.63;23.17;;;28.90;42.90;;;;;;4951473;28;20114;-71
2023/07/30 13:07:02;;;;;;;12.60;7.80;;;28.90;41.80;;;;;;4959156;28;20107;-71
2023/07/30 13:09:31;;;;;;;5.50;4.63;;;29.00;42.70;;;;;;4972292;28;20446;-71
2023/07/30 13:11:56;;;;;;;18.38;12.15;;;29.10;41.30;;;;;;4954071;28;20023;-70
2023/07/30 13:14:22;;;;;;;10.90;6.93;;;29.10;41.40;;;;;;4964668;28;20102;-66
2023/07/30 13:16:47;;;;;;;14.13;8.80;;;29.40;41.10;;;;;;4946551;28;20019;-70
2023/07/30 13:19:13;;;;;;;3.35;1.77;;;29.20;42.70;;;;;;4964359;28;20117;-69
2023/07/30 13:21:39;;;;;;;4.78;3.45;;;29.20;39.10;;;;;;4962019;28;20592;-68
2023/07/30 13:24:04;;;;;;;3.00;2.17;;;29.10;41.50;;;;;;4957372;28;20031;-70
2023/07/30 13:26:30;;;;;;;1.60;1.40;;;29.00;40.50;;;;;;4959527;28;20066;-71
2023/07/30 13:28:55;;;;;;;2.67;0.65;;;29.30;38.40;;;;;;4952055;28;20023;-71
2023/07/30 13:31:21;;;;;;;2.45;1.85;;;29.20;39.10;;;;;;4959543;28;20467;-71
2023/07/30 13:33:47;;;;;;;2.13;1.65;;;29.50;40.20;;;;;;4961477;28;20102;-70
2023/07/30 13:36:14;;;;;;;3.67;2.30;;;29.20;40.00;;;;;;4953401;28;20490;-69
2023/07/30 13:38:39;;;;;;;2.42;1.67;;;29.40;41.40;;;;;;4960937;28;20420;-69
2023/07/30 13:41:08;;;;;;;2.03;1.35;;;29.40;40.50;;;;;;4949563;28;20034;-69
2023/07/30 13:43:34;;;;;;;2.45;1.10;;;;;;;;;;4954720;28;20046;-69
2023/07/30 13:46:00;;;;;;;1.98;1.20;;;;;;;;;;4953262;28;20043;-69
2023/07/30 13:48:26;;;;;;;0.85;0.85;;;;;;;;;;4952883;28;20027;-68
2023/07/30 13:50:53;;;;;;;0.65;0.65;;;;;;;;;;4953072;28;20367;-69
2023/07/30 13:53:19;;;;;;;3.17;1.10;;;;;;;;;;4953419;28;20103;-69
2023/07/30 13:55:45;;;;;;;1.58;1.15;;;;;;;;;;4935925;28;20027;-68
2023/07/30 13:58:11;;;;;;;1.10;1.00;;;;;;;;;;4953337;28;20037;-69
2023/07/30 14:00:37;;;;;;;1.65;0.95;;;;;;;;;;4952788;28;20100;-69
2023/07/30 14:03:03;;;;;;;1.55;1.00;;;;;;;;;;4952678;28;20097;-68
2023/07/30 14:05:29;;;;;;;1.25;0.80;;;;;;;;;;4952633;28;20031;-68
2023/07/30 14:07:56;;;;;;;1.25;0.90;;;;;;;;;;4952809;28;20019;-70
2023/07/30 14:10:27;;;;;;;0.75;0.52;;;;;;;;;;4952395;28;20034;-69
2023/07/30 14:12:53;;;;;;;1.17;1.08;;;;;;;;;;4935412;29;20019;-70
2023/07/30 14:15:19;;;;;;;1.95;1.05;;;;;;;;;;4952627;28;20700;-70